Time,TemperatureF,DewpointF,PressureIn,WindDirection,WindDirectionDegrees,WindSpeedMPH,WindSpeedGustMPH,Humidity,HourlyPrecipIn,Conditions,Clouds,dailyrainin,SolarRadiationWatts/m^2,SoftwareType,DateUTC
2013-01-31 07:00:00,23.0,19.0,29.96,West,269,1.0,-999.0,85,-99.99,,,-99.99,0.000000,,2013-01-31 13:00:00,
2013-01-31 08:00:00,23.0,17.0,30.00,NW,319,3.0,-999.0,79,-99.99,,,-99.99,8.640000,,2013-01-31 14:00:00,
2013-01-31 08:52:00,23.0,17.0,30.00,NW,319,3.0,-999.0,79,-99.99,,,-99.99,8.640000,,2013-01-31 14:52:00,
2013-01-31 09:00:00,24.0,14.0,30.02,NW,317,4.0,-999.0,66,-99.99,,,-99.99,114.400002,,2013-01-31 15:00:00,
2013-01-31 09:52:00,24.0,14.0,30.02,NW,317,4.0,-999.0,66,-99.99,,,-99.99,114.400002,,2013-01-31 15:52:00,
2013-01-31 10:00:00,23.0,12.0,30.07,NW,311,5.0,-999.0,60,-99.99,,,-99.99,260.600006,,2013-01-31 16:00:00,
2013-01-31 10:52:00,23.0,12.0,30.07,NW,311,5.0,-999.0,60,-99.99,,,-99.99,260.600006,,2013-01-31 16:52:00,
2013-01-31 11:00:00,23.0,9.0,30.09,NW,309,5.0,-999.0,54,-99.99,,,-99.99,246.800003,,2013-01-31 17:00:00,
2013-01-31 11:53:00,23.0,9.0,30.09,NW,309,5.0,-999.0,54,-99.99,,,-99.99,246.800003,,2013-01-31 17:53:00,
2013-01-31 12:00:00,21.0,4.0,30.12,NW,313,5.0,-999.0,48,-99.99,,,-99.99,200.800003,,2013-01-31 18:00:00,
2013-01-31 12:52:00,21.0,4.0,30.12,NW,313,5.0,-999.0,48,-99.99,,,-99.99,200.800003,,2013-01-31 18:52:00,
2013-01-31 13:00:00,20.0,7.0,30.15,NW,305,6.0,-999.0,56,-99.99,,,-99.99,240.399994,,2013-01-31 19:00:00,
2013-01-31 13:52:00,20.0,7.0,30.15,NW,305,6.0,-999.0,56,-99.99,,,-99.99,240.399994,,2013-01-31 19:52:00,
2013-01-31 14:00:00,20.0,4.0,30.17,WNW,303,7.0,-999.0,51,-99.99,,,-99.99,320.000000,,2013-01-31 20:00:00,
2013-01-31 14:52:00,20.0,4.0,30.17,WNW,303,7.0,-999.0,51,-99.99,,,-99.99,320.000000,,2013-01-31 20:52:00,
2013-01-31 15:00:00,19.0,5.0,30.20,WNW,301,7.0,-999.0,54,-99.99,,,-99.99,367.200012,,2013-01-31 21:00:00,
2013-01-31 15:52:00,19.0,5.0,30.20,WNW,301,7.0,-999.0,54,-99.99,,,-99.99,367.200012,,2013-01-31 21:52:00,
2013-01-31 16:00:00,15.0,4.0,30.23,NW,309,6.0,-999.0,60,-99.99,,,-99.99,147.800003,,2013-01-31 22:00:00,
2013-01-31 16:52:00,15.0,4.0,30.23,NW,309,6.0,-999.0,60,-99.99,,,-99.99,147.800003,,2013-01-31 22:52:00,
2013-01-31 17:00:00,14.0,3.0,30.25,WNW,301,6.0,-999.0,61,-99.99,,,-99.99,69.099998,,2013-01-31 23:00:00,
2013-01-31 17:52:00,14.0,3.0,30.25,WNW,301,6.0,-999.0,61,-99.99,,,-99.99,69.099998,,2013-01-31 23:52:00,
2013-01-31 18:00:00,12.0,1.0,30.28,NW,308,4.0,-999.0,61,-99.99,,,-99.99,9.180000,,2013-02-01 00:00:00,
2013-01-31 18:52:00,12.0,1.0,30.28,NW,308,4.0,-999.0,61,-99.99,,,-99.99,9.180000,,2013-02-01 00:52:00,
2013-01-31 19:00:00,11.0,1.0,30.32,NW,314,4.0,-999.0,62,-99.99,,,-99.99,0.000000,,2013-02-01 01:00:00,
2013-01-31 19:52:00,11.0,1.0,30.32,NW,314,4.0,-999.0,62,-99.99,,,-99.99,0.000000,,2013-02-01 01:52:00,
2013-01-31 20:00:00,10.0,-1.0,30.35,NW,307,4.0,-999.0,61,-99.99,,,-99.99,0.000000,,2013-02-01 02:00:00,
2013-01-31 20:52:00,10.0,-1.0,30.35,NW,307,4.0,-999.0,61,-99.99,,,-99.99,0.000000,,2013-02-01 02:52:00,
2013-01-31 21:00:00,9.0,0.0,30.38,WNW,302,3.0,-999.0,65,-99.99,,,-99.99,0.000000,,2013-02-01 03:00:00,
2013-01-31 21:52:00,9.0,0.0,30.38,WNW,302,3.0,-999.0,65,-99.99,,,-99.99,0.000000,,2013-02-01 03:52:00,
2013-01-31 22:00:00,9.0,-2.0,30.41,West,278,2.0,-999.0,62,-99.99,,,-99.99,0.000000,,2013-02-01 04:00:00,
2013-01-31 23:00:00,9.0,0.0,30.43,WSW,257,2.0,-999.0,67,-99.99,,,-99.99,0.000000,,2013-02-01 05:00:00,
2013-01-31 23:52:00,9.0,0.0,30.43,WSW,257,2.0,-999.0,67,-99.99,,,-99.99,0.000000,,2013-02-01 05:52:00,